sensor_id;sensor_type;location;lat;lon;timestamp;P1;durP1;ratioP1;P2;durP2;ratioP2
21245;SDS011;10781;50.928;4.440;2023-07-31T00:00:47;15.80;;;4.88;;
21245;SDS011;10781;50.928;4.440;2023-07-31T00:03:12;13.80;;;4.43;;
21245;SDS011;10781;50.928;4.440;2023-07-31T00:05:38;16.50;;;4.53;;
21245;SDS011;10781;50.928;4.440;2023-07-31T00:08:03;12.07;;;4.13;;
21245;SDS011;10781;50.928;4.440;2023-07-31T00:10:29;14.02;;;4.75;;
21245;SDS011;10781;50.928;4.440;2023-07-31T00:12:55;15.18;;;4.18;;
21245;SDS011;10781;50.928;4.440;2023-07-31T00:15:20;13.43;;;3.95;;
21245;SDS011;10781;50.928;4.440;2023-07-31T00:17:46;13.38;;;3.90;;
21245;SDS011;10781;50.928;4.440;2023-07-31T00:20:12;11.68;;;4.13;;
21245;SDS011;10781;50.928;4.440;2023-07-31T00:22:38;10.68;;;4.18;;
21245;SDS011;10781;50.928;4.440;2023-07-31T00:25:04;16.85;;;4.40;;
21245;SDS011;10781;50.928;4.440;2023-07-31T00:27:31;12.70;;;4.60;;
21245;SDS011;10781;50.928;4.440;2023-07-31T00:29:57;12.35;;;4.63;;
21245;SDS011;10781;50.928;4.440;2023-07-31T00:32:23;13.25;;;3.97;;
21245;SDS011;10781;50.928;4.440;2023-07-31T00:34:48;13.75;;;4.22;;
21245;SDS011;10781;50.928;4.440;2023-07-31T00:37:14;11.10;;;4.15;;
21245;SDS011;10781;50.928;4.440;2023-07-31T00:39:40;13.68;;;4.38;;
21245;SDS011;10781;50.928;4.440;2023-07-31T00:42:06;13.38;;;4.50;;
21245;SDS011;10781;50.928;4.440;2023-07-31T00:44:32;14.00;;;4.75;;
21245;SDS011;10781;50.928;4.440;2023-07-31T00:46:58;17.00;;;4.55;;
21245;SDS011;10781;50.928;4.440;2023-07-31T00:49:25;12.88;;;4.55;;
21245;SDS011;10781;50.928;4.440;2023-07-31T00:51:51;13.73;;;4.90;;
21245;SDS011;10781;50.928;4.440;2023-07-31T00:54:17;11.50;;;4.72;;
21245;SDS011;10781;50.928;4.440;2023-07-31T00:56:44;13.23;;;5.18;;
21245;SDS011;10781;50.928;4.440;2023-07-31T00:59:11;12.65;;;4.38;;
21245;SDS011;10781;50.928;4.440;2023-07-31T01:01:37;12.65;;;4.32;;
21245;SDS011;10781;50.928;4.440;2023-07-31T01:04:03;10.40;;;4.30;;
21245;SDS011;10781;50.928;4.440;2023-07-31T01:12:00;15.13;;;4.60;;
21245;SDS011;10781;50.928;4.440;2023-07-31T01:14:27;11.90;;;4.40;;
21245;SDS011;10781;50.928;4.440;2023-07-31T01:16:54;10.52;;;4.40;;
21245;SDS011;10781;50.928;4.440;2023-07-31T01:19:21;10.98;;;4.05;;
21245;SDS011;10781;50.928;4.440;2023-07-31T01:24:30;11.43;;;4.45;;
21245;SDS011;10781;50.928;4.440;2023-07-31T01:27:21;13.35;;;4.90;;
21245;SDS011;10781;50.928;4.440;2023-07-31T01:29:54;13.88;;;4.53;;
21245;SDS011;10781;50.928;4.440;2023-07-31T01:32:25;9.65;;;4.28;;
21245;SDS011;10781;50.928;4.440;2023-07-31T01:34:53;14.95;;;4.63;;
21245;SDS011;10781;50.928;4.440;2023-07-31T01:37:20;13.27;;;4.28;;
21245;SDS011;10781;50.928;4.440;2023-07-31T01:39:45;10.80;;;3.83;;
21245;SDS011;10781;50.928;4.440;2023-07-31T01:42:11;12.75;;;4.70;;
21245;SDS011;10781;50.928;4.440;2023-07-31T01:44:36;14.73;;;5.15;;
21245;SDS011;10781;50.928;4.440;2023-07-31T01:47:02;9.75;;;4.47;;
21245;SDS011;10781;50.928;4.440;2023-07-31T01:49:28;14.00;;;4.28;;
21245;SDS011;10781;50.928;4.440;2023-07-31T01:51:53;16.15;;;4.65;;
21245;SDS011;10781;50.928;4.440;2023-07-31T01:54:19;11.57;;;3.72;;
21245;SDS011;10781;50.928;4.440;2023-07-31T01:56:44;10.93;;;4.30;;
21245;SDS011;10781;50.928;4.440;2023-07-31T01:59:10;13.18;;;4.05;;
21245;SDS011;10781;50.928;4.440;2023-07-31T02:01:36;11.02;;;4.32;;
21245;SDS011;10781;50.928;4.440;2023-07-31T02:04:01;9.27;;;4.25;;
21245;SDS011;10781;50.928;4.440;2023-07-31T02:06:27;9.73;;;4.72;;
21245;SDS011;10781;50.928;4.440;2023-07-31T02:08:53;7.50;;;3.92;;
21245;SDS011;10781;50.928;4.440;2023-07-31T02:11:18;11.73;;;4.38;;
21245;SDS011;10781;50.928;4.440;2023-07-31T02:13:44;12.80;;;4.80;;
21245;SDS011;10781;50.928;4.440;2023-07-31T02:16:10;11.65;;;3.75;;
21245;SDS011;10781;50.928;4.440;2023-07-31T02:18:35;9.85;;;4.63;;
21245;SDS011;10781;50.928;4.440;2023-07-31T02:21:01;10.73;;;4.18;;
21245;SDS011;10781;50.928;4.440;2023-07-31T02:23:27;9.57;;;4.65;;
21245;SDS011;10781;50.928;4.440;2023-07-31T02:25:52;12.80;;;4.70;;
21245;SDS011;10781;50.928;4.440;2023-07-31T02:28:18;11.27;;;4.70;;
21245;SDS011;10781;50.928;4.440;2023-07-31T02:30:44;11.52;;;5.20;;
21245;SDS011;10781;50.928;4.440;2023-07-31T02:33:13;12.25;;;4.70;;
21245;SDS011;10781;50.928;4.440;2023-07-31T02:35:40;11.02;;;4.85;;
21245;SDS011;10781;50.928;4.440;2023-07-31T02:38:05;15.07;;;4.55;;
21245;SDS011;10781;50.928;4.440;2023-07-31T02:40:31;14.27;;;4.63;;
21245;SDS011;10781;50.928;4.440;2023-07-31T02:42:57;11.70;;;5.00;;
21245;SDS011;10781;50.928;4.440;2023-07-31T02:45:22;12.63;;;4.53;;
21245;SDS011;10781;50.928;4.440;2023-07-31T02:47:48;12.85;;;5.03;;
21245;SDS011;10781;50.928;4.440;2023-07-31T02:50:14;10.55;;;4.68;;
21245;SDS011;10781;50.928;4.440;2023-07-31T02:52:39;9.45;;;4.50;;
21245;SDS011;10781;50.928;4.440;2023-07-31T02:55:05;8.55;;;4.03;;
21245;SDS011;10781;50.928;4.440;2023-07-31T02:57:31;10.80;;;4.63;;
21245;SDS011;10781;50.928;4.440;2023-07-31T02:59:57;11.57;;;4.43;;
21245;SDS011;10781;50.928;4.440;2023-07-31T03:02:23;7.93;;;4.50;;
21245;SDS011;10781;50.928;4.440;2023-07-31T03:04:48;16.17;;;4.95;;
21245;SDS011;10781;50.928;4.440;2023-07-31T03:07:14;8.18;;;4.70;;
21245;SDS011;10781;50.928;4.440;2023-07-31T03:09:39;10.52;;;4.75;;
21245;SDS011;10781;50.928;4.440;2023-07-31T03:12:05;9.35;;;4.63;;
21245;SDS011;10781;50.928;4.440;2023-07-31T03:14:31;8.02;;;4.60;;
21245;SDS011;10781;50.928;4.440;2023-07-31T03:16:57;8.48;;;4.50;;
21245;SDS011;10781;50.928;4.440;2023-07-31T03:19:22;12.75;;;5.05;;
21245;SDS011;10781;50.928;4.440;2023-07-31T03:21:48;10.75;;;5.25;;
21245;SDS011;10781;50.928;4.440;2023-07-31T03:24:14;7.53;;;5.00;;
21245;SDS011;10781;50.928;4.440;2023-07-31T03:26:39;8.18;;;4.95;;
21245;SDS011;10781;50.928;4.440;2023-07-31T03:29:06;9.70;;;5.43;;
21245;SDS011;10781;50.928;4.440;2023-07-31T03:31:32;9.95;;;5.18;;
21245;SDS011;10781;50.928;4.440;2023-07-31T03:33:58;10.40;;;5.25;;
21245;SDS011;10781;50.928;4.440;2023-07-31T03:36:24;13.02;;;5.85;;
21245;SDS011;10781;50.928;4.440;2023-07-31T03:38:50;9.00;;;4.57;;
21245;SDS011;10781;50.928;4.440;2023-07-31T03:41:16;11.25;;;5.00;;
21245;SDS011;10781;50.928;4.440;2023-07-31T03:43:42;8.98;;;4.63;;
21245;SDS011;10781;50.928;4.440;2023-07-31T03:46:08;8.30;;;4.82;;
21245;SDS011;10781;50.928;4.440;2023-07-31T03:48:33;10.20;;;4.93;;
21245;SDS011;10781;50.928;4.440;2023-07-31T03:50:59;10.15;;;5.07;;
21245;SDS011;10781;50.928;4.440;2023-07-31T03:53:24;8.13;;;4.65;;
21245;SDS011;10781;50.928;4.440;2023-07-31T03:55:50;8.18;;;5.18;;
21245;SDS011;10781;50.928;4.440;2023-07-31T03:58:16;9.73;;;5.25;;
21245;SDS011;10781;50.928;4.440;2023-07-31T04:00:41;9.25;;;4.90;;
21245;SDS011;10781;50.928;4.440;2023-07-31T04:03:07;10.60;;;5.00;;
21245;SDS011;10781;50.928;4.440;2023-07-31T04:05:32;8.65;;;5.15;;
21245;SDS011;10781;50.928;4.440;2023-07-31T04:07:58;10.05;;;5.00;;
21245;SDS011;10781;50.928;4.440;2023-07-31T04:10:24;8.50;;;4.85;;
21245;SDS011;10781;50.928;4.440;2023-07-31T04:12:50;12.43;;;5.07;;
21245;SDS011;10781;50.928;4.440;2023-07-31T04:15:15;9.32;;;5.00;;
21245;SDS011;10781;50.928;4.440;2023-07-31T04:17:41;12.38;;;5.93;;
21245;SDS011;10781;50.928;4.440;2023-07-31T04:20:07;9.20;;;5.28;;
21245;SDS011;10781;50.928;4.440;2023-07-31T04:22:33;10.10;;;5.00;;
21245;SDS011;10781;50.928;4.440;2023-07-31T04:24:59;7.57;;;5.07;;
21245;SDS011;10781;50.928;4.440;2023-07-31T04:27:24;8.35;;;4.72;;
21245;SDS011;10781;50.928;4.440;2023-07-31T04:29:50;7.35;;;4.72;;
21245;SDS011;10781;50.928;4.440;2023-07-31T04:32:16;8.85;;;4.60;;
21245;SDS011;10781;50.928;4.440;2023-07-31T04:34:42;10.07;;;4.65;;
21245;SDS011;10781;50.928;4.440;2023-07-31T04:37:08;9.90;;;4.95;;
21245;SDS011;10781;50.928;4.440;2023-07-31T04:39:33;8.10;;;4.88;;
21245;SDS011;10781;50.928;4.440;2023-07-31T04:41:59;12.40;;;5.28;;
21245;SDS011;10781;50.928;4.440;2023-07-31T04:44:25;9.13;;;4.80;;
21245;SDS011;10781;50.928;4.440;2023-07-31T04:46:50;12.82;;;4.82;;
21245;SDS011;10781;50.928;4.440;2023-07-31T04:49:16;8.15;;;5.00;;
21245;SDS011;10781;50.928;4.440;2023-07-31T04:51:41;9.45;;;5.25;;
21245;SDS011;10781;50.928;4.440;2023-07-31T04:54:07;10.15;;;5.05;;
21245;SDS011;10781;50.928;4.440;2023-07-31T04:56:33;7.63;;;4.57;;
21245;SDS011;10781;50.928;4.440;2023-07-31T04:58:58;10.60;;;5.00;;
21245;SDS011;10781;50.928;4.440;2023-07-31T05:01:24;9.93;;;5.03;;
21245;SDS011;10781;50.928;4.440;2023-07-31T05:03:50;10.65;;;4.80;;
21245;SDS011;10781;50.928;4.440;2023-07-31T05:06:16;12.77;;;5.22;;
21245;SDS011;10781;50.928;4.440;2023-07-31T05:08:41;9.90;;;5.07;;
21245;SDS011;10781;50.928;4.440;2023-07-31T05:11:07;11.30;;;5.35;;
21245;SDS011;10781;50.928;4.440;2023-07-31T05:13:33;11.43;;;5.20;;
21245;SDS011;10781;50.928;4.440;2023-07-31T05:15:58;8.38;;;5.13;;
21245;SDS011;10781;50.928;4.440;2023-07-31T05:18:24;9.13;;;4.78;;
21245;SDS011;10781;50.928;4.440;2023-07-31T05:20:49;11.75;;;5.60;;
21245;SDS011;10781;50.928;4.440;2023-07-31T05:23:15;12.05;;;5.57;;
21245;SDS011;10781;50.928;4.440;2023-07-31T05:25:41;11.90;;;5.50;;
21245;SDS011;10781;50.928;4.440;2023-07-31T05:28:06;9.30;;;5.28;;
21245;SDS011;10781;50.928;4.440;2023-07-31T05:30:32;8.23;;;5.20;;
21245;SDS011;10781;50.928;4.440;2023-07-31T05:32:57;10.00;;;4.75;;
21245;SDS011;10781;50.928;4.440;2023-07-31T05:35:23;10.80;;;4.75;;
21245;SDS011;10781;50.928;4.440;2023-07-31T05:37:49;8.85;;;4.78;;
21245;SDS011;10781;50.928;4.440;2023-07-31T05:40:14;9.77;;;4.93;;
21245;SDS011;10781;50.928;4.440;2023-07-31T05:42:40;10.95;;;4.60;;
21245;SDS011;10781;50.928;4.440;2023-07-31T05:45:06;7.88;;;4.70;;
21245;SDS011;10781;50.928;4.440;2023-07-31T05:47:32;7.93;;;4.45;;
21245;SDS011;10781;50.928;4.440;2023-07-31T05:49:58;9.48;;;4.93;;
21245;SDS011;10781;50.928;4.440;2023-07-31T05:52:24;8.10;;;4.35;;
21245;SDS011;10781;50.928;4.440;2023-07-31T05:54:49;10.60;;;4.20;;
21245;SDS011;10781;50.928;4.440;2023-07-31T05:57:15;7.45;;;3.95;;
21245;SDS011;10781;50.928;4.440;2023-07-31T05:59:41;9.18;;;4.47;;
21245;SDS011;10781;50.928;4.440;2023-07-31T06:02:07;10.52;;;4.32;;
21245;SDS011;10781;50.928;4.440;2023-07-31T06:04:33;9.05;;;4.32;;
21245;SDS011;10781;50.928;4.440;2023-07-31T06:06:58;9.80;;;4.22;;
21245;SDS011;10781;50.928;4.440;2023-07-31T06:09:24;10.23;;;4.57;;
21245;SDS011;10781;50.928;4.440;2023-07-31T06:11:50;8.27;;;4.82;;
21245;SDS011;10781;50.928;4.440;2023-07-31T06:14:16;6.15;;;4.10;;
21245;SDS011;10781;50.928;4.440;2023-07-31T06:16:43;11.18;;;4.53;;
21245;SDS011;10781;50.928;4.440;2023-07-31T06:19:09;7.05;;;4.35;;
21245;SDS011;10781;50.928;4.440;2023-07-31T06:21:35;10.52;;;4.60;;
21245;SDS011;10781;50.928;4.440;2023-07-31T06:24:07;8.88;;;4.57;;
21245;SDS011;10781;50.928;4.440;2023-07-31T06:26:33;7.25;;;4.10;;
21245;SDS011;10781;50.928;4.440;2023-07-31T06:28:58;7.97;;;4.30;;
21245;SDS011;10781;50.928;4.440;2023-07-31T06:31:24;9.40;;;4.57;;
21245;SDS011;10781;50.928;4.440;2023-07-31T06:33:50;10.05;;;4.90;;
21245;SDS011;10781;50.928;4.440;2023-07-31T06:36:16;10.02;;;4.68;;
21245;SDS011;10781;50.928;4.440;2023-07-31T06:38:42;8.82;;;4.43;;
21245;SDS011;10781;50.928;4.440;2023-07-31T06:41:08;9.13;;;4.43;;
21245;SDS011;10781;50.928;4.440;2023-07-31T06:43:35;7.95;;;4.18;;
21245;SDS011;10781;50.928;4.440;2023-07-31T06:46:05;9.88;;;4.80;;
21245;SDS011;10781;50.928;4.440;2023-07-31T06:48:32;9.00;;;4.05;;
21245;SDS011;10781;50.928;4.440;2023-07-31T06:50:58;8.48;;;4.25;;
21245;SDS011;10781;50.928;4.440;2023-07-31T06:53:23;9.73;;;3.90;;
21245;SDS011;10781;50.928;4.440;2023-07-31T06:55:49;7.60;;;3.70;;
21245;SDS011;10781;50.928;4.440;2023-07-31T06:58:16;8.32;;;4.10;;
21245;SDS011;10781;50.928;4.440;2023-07-31T07:00:42;5.97;;;3.35;;
21245;SDS011;10781;50.928;4.440;2023-07-31T07:03:08;8.13;;;3.90;;
21245;SDS011;10781;50.928;4.440;2023-07-31T07:05:34;9.20;;;3.88;;
21245;SDS011;10781;50.928;4.440;2023-07-31T07:07:59;7.22;;;3.60;;
21245;SDS011;10781;50.928;4.440;2023-07-31T07:10:25;6.05;;;3.65;;
21245;SDS011;10781;50.928;4.440;2023-07-31T07:12:51;6.35;;;3.55;;
21245;SDS011;10781;50.928;4.440;2023-07-31T07:15:16;6.72;;;3.35;;
21245;SDS011;10781;50.928;4.440;2023-07-31T07:17:42;5.80;;;3.00;;
21245;SDS011;10781;50.928;4.440;2023-07-31T07:20:08;7.95;;;3.38;;
21245;SDS011;10781;50.928;4.440;2023-07-31T07:22:34;6.30;;;3.20;;
21245;SDS011;10781;50.928;4.440;2023-07-31T07:24:59;7.38;;;3.22;;
21245;SDS011;10781;50.928;4.440;2023-07-31T07:27:25;11.07;;;3.08;;
21245;SDS011;10781;50.928;4.440;2023-07-31T07:29:51;5.13;;;3.20;;
21245;SDS011;10781;50.928;4.440;2023-07-31T07:32:20;8.52;;;3.75;;
21245;SDS011;10781;50.928;4.440;2023-07-31T07:34:47;7.00;;;3.10;;
21245;SDS011;10781;50.928;4.440;2023-07-31T07:37:13;5.07;;;3.10;;
21245;SDS011;10781;50.928;4.440;2023-07-31T07:39:39;8.18;;;3.13;;
21245;SDS011;10781;50.928;4.440;2023-07-31T07:42:05;6.80;;;3.13;;
21245;SDS011;10781;50.928;4.440;2023-07-31T07:44:30;5.85;;;2.85;;
21245;SDS011;10781;50.928;4.440;2023-07-31T07:46:56;5.07;;;2.78;;
21245;SDS011;10781;50.928;4.440;2023-07-31T07:49:22;5.80;;;2.78;;
21245;SDS011;10781;50.928;4.440;2023-07-31T07:51:48;6.53;;;2.72;;
21245;SDS011;10781;50.928;4.440;2023-07-31T07:54:14;5.18;;;2.80;;
21245;SDS011;10781;50.928;4.440;2023-07-31T07:56:42;7.68;;;3.00;;
21245;SDS011;10781;50.928;4.440;2023-07-31T07:59:08;4.00;;;2.92;;
21245;SDS011;10781;50.928;4.440;2023-07-31T08:01:33;4.80;;;2.97;;
21245;SDS011;10781;50.928;4.440;2023-07-31T08:03:59;6.90;;;2.55;;
21245;SDS011;10781;50.928;4.440;2023-07-31T08:06:25;5.25;;;2.60;;
21245;SDS011;10781;50.928;4.440;2023-07-31T08:08:50;5.50;;;2.83;;
21245;SDS011;10781;50.928;4.440;2023-07-31T08:11:16;4.82;;;2.60;;
21245;SDS011;10781;50.928;4.440;2023-07-31T08:13:42;7.85;;;3.08;;
21245;SDS011;10781;50.928;4.440;2023-07-31T08:16:07;6.65;;;2.80;;
21245;SDS011;10781;50.928;4.440;2023-07-31T08:18:33;4.97;;;2.53;;
21245;SDS011;10781;50.928;4.440;2023-07-31T08:20:59;4.20;;;2.67;;
21245;SDS011;10781;50.928;4.440;2023-07-31T08:23:26;7.25;;;2.63;;
21245;SDS011;10781;50.928;4.440;2023-07-31T08:25:51;5.47;;;2.85;;
21245;SDS011;10781;50.928;4.440;2023-07-31T08:28:17;6.55;;;2.72;;
21245;SDS011;10781;50.928;4.440;2023-07-31T08:30:43;5.40;;;2.70;;
21245;SDS011;10781;50.928;4.440;2023-07-31T08:33:08;6.18;;;2.70;;
21245;SDS011;10781;50.928;4.440;2023-07-31T08:35:34;9.32;;;2.70;;
21245;SDS011;10781;50.928;4.440;2023-07-31T08:38:00;3.80;;;2.53;;
21245;SDS011;10781;50.928;4.440;2023-07-31T08:40:25;5.35;;;2.53;;
21245;SDS011;10781;50.928;4.440;2023-07-31T08:42:53;6.22;;;2.65;;
21245;SDS011;10781;50.928;4.440;2023-07-31T08:45:21;5.07;;;2.60;;
21245;SDS011;10781;50.928;4.440;2023-07-31T08:47:48;8.02;;;2.70;;
21245;SDS011;10781;50.928;4.440;2023-07-31T08:50:17;6.50;;;2.80;;
21245;SDS011;10781;50.928;4.440;2023-07-31T08:52:43;5.65;;;2.58;;
21245;SDS011;10781;50.928;4.440;2023-07-31T08:55:10;7.25;;;2.95;;
21245;SDS011;10781;50.928;4.440;2023-07-31T08:57:36;5.88;;;2.95;;
21245;SDS011;10781;50.928;4.440;2023-07-31T09:00:04;7.75;;;3.05;;
21245;SDS011;10781;50.928;4.440;2023-07-31T09:02:48;6.70;;;3.00;;
21245;SDS011;10781;50.928;4.440;2023-07-31T09:05:28;5.55;;;2.75;;
21245;SDS011;10781;50.928;4.440;2023-07-31T09:07:54;7.22;;;2.83;;
21245;SDS011;10781;50.928;4.440;2023-07-31T09:10:21;5.72;;;2.67;;
21245;SDS011;10781;50.928;4.440;2023-07-31T09:12:47;6.55;;;3.20;;
21245;SDS011;10781;50.928;4.440;2023-07-31T09:15:15;6.65;;;2.75;;
21245;SDS011;10781;50.928;4.440;2023-07-31T09:17:41;7.63;;;2.88;;
21245;SDS011;10781;50.928;4.440;2023-07-31T09:20:17;5.95;;;2.70;;
21245;SDS011;10781;50.928;4.440;2023-07-31T09:22:44;5.97;;;3.05;;
21245;SDS011;10781;50.928;4.440;2023-07-31T09:25:28;7.25;;;3.20;;
21245;SDS011;10781;50.928;4.440;2023-07-31T09:27:57;7.93;;;3.42;;
21245;SDS011;10781;50.928;4.440;2023-07-31T09:30:23;6.40;;;3.20;;
21245;SDS011;10781;50.928;4.440;2023-07-31T09:32:50;5.20;;;3.05;;
21245;SDS011;10781;50.928;4.440;2023-07-31T09:35:20;4.63;;;2.70;;
21245;SDS011;10781;50.928;4.440;2023-07-31T09:37:50;7.00;;;3.22;;
21245;SDS011;10781;50.928;4.440;2023-07-31T09:40:26;7.57;;;3.13;;
21245;SDS011;10781;50.928;4.440;2023-07-31T09:42:56;7.18;;;3.20;;
21245;SDS011;10781;50.928;4.440;2023-07-31T09:45:24;6.10;;;3.20;;
21245;SDS011;10781;50.928;4.440;2023-07-31T09:47:50;4.47;;;2.70;;
21245;SDS011;10781;50.928;4.440;2023-07-31T09:50:16;7.18;;;2.63;;
21245;SDS011;10781;50.928;4.440;2023-07-31T09:52:42;5.13;;;2.95;;
21245;SDS011;10781;50.928;4.440;2023-07-31T09:55:08;5.03;;;2.70;;
21245;SDS011;10781;50.928;4.440;2023-07-31T09:57:36;7.88;;;3.10;;
21245;SDS011;10781;50.928;4.440;2023-07-31T10:00:07;5.47;;;3.00;;
21245;SDS011;10781;50.928;4.440;2023-07-31T10:02:34;5.35;;;3.30;;
21245;SDS011;10781;50.928;4.440;2023-07-31T10:05:02;8.85;;;3.80;;
21245;SDS011;10781;50.928;4.440;2023-07-31T10:07:30;8.48;;;3.70;;
21245;SDS011;10781;50.928;4.440;2023-07-31T10:10:00;7.75;;;3.70;;
21245;SDS011;10781;50.928;4.440;2023-07-31T10:12:26;6.15;;;3.80;;
21245;SDS011;10781;50.928;4.440;2023-07-31T10:14:55;8.20;;;4.22;;
21245;SDS011;10781;50.928;4.440;2023-07-31T10:17:22;7.10;;;4.30;;
21245;SDS011;10781;50.928;4.440;2023-07-31T10:19:49;8.65;;;4.30;;
21245;SDS011;10781;50.928;4.440;2023-07-31T10:22:15;9.00;;;4.40;;
21245;SDS011;10781;50.928;4.440;2023-07-31T10:24:42;8.77;;;4.30;;
21245;SDS011;10781;50.928;4.440;2023-07-31T10:27:08;7.97;;;4.57;;
21245;SDS011;10781;50.928;4.440;2023-07-31T10:29:35;7.20;;;4.05;;
21245;SDS011;10781;50.928;4.440;2023-07-31T10:32:03;5.55;;;3.58;;
21245;SDS011;10781;50.928;4.440;2023-07-31T10:34:33;6.85;;;4.10;;
21245;SDS011;10781;50.928;4.440;2023-07-31T10:37:23;8.80;;;4.55;;
21245;SDS011;10781;50.928;4.440;2023-07-31T10:40:03;8.05;;;3.92;;
21245;SDS011;10781;50.928;4.440;2023-07-31T10:42:46;9.18;;;4.18;;
21245;SDS011;10781;50.928;4.440;2023-07-31T10:45:13;7.53;;;4.05;;
21245;SDS011;10781;50.928;4.440;2023-07-31T10:47:48;7.22;;;3.90;;
21245;SDS011;10781;50.928;4.440;2023-07-31T10:50:17;11.95;;;4.50;;
21245;SDS011;10781;50.928;4.440;2023-07-31T10:52:48;8.52;;;4.22;;
21245;SDS011;10781;50.928;4.440;2023-07-31T10:57:54;7.85;;;4.38;;
21245;SDS011;10781;50.928;4.440;2023-07-31T11:10:39;8.32;;;3.67;;
21245;SDS011;10781;50.928;4.440;2023-07-31T11:13:05;9.13;;;4.00;;
21245;SDS011;10781;50.928;4.440;2023-07-31T11:15:31;8.15;;;4.18;;
21245;SDS011;10781;50.928;4.440;2023-07-31T11:17:56;6.63;;;3.78;;
21245;SDS011;10781;50.928;4.440;2023-07-31T11:20:25;6.78;;;3.90;;
21245;SDS011;10781;50.928;4.440;2023-07-31T11:22:51;8.35;;;4.05;;
21245;SDS011;10781;50.928;4.440;2023-07-31T11:25:17;9.60;;;3.85;;
21245;SDS011;10781;50.928;4.440;2023-07-31T11:27:43;6.65;;;3.63;;
21245;SDS011;10781;50.928;4.440;2023-07-31T11:30:10;9.18;;;4.60;;
21245;SDS011;10781;50.928;4.440;2023-07-31T11:32:36;6.60;;;3.72;;
21245;SDS011;10781;50.928;4.440;2023-07-31T11:35:02;6.05;;;3.25;;
21245;SDS011;10781;50.928;4.440;2023-07-31T11:37:43;6.82;;;3.53;;
21245;SDS011;10781;50.928;4.440;2023-07-31T11:40:09;8.77;;;3.63;;
21245;SDS011;10781;50.928;4.440;2023-07-31T11:42:35;9.88;;;3.53;;
21245;SDS011;10781;50.928;4.440;2023-07-31T11:45:03;7.57;;;4.00;;
21245;SDS011;10781;50.928;4.440;2023-07-31T11:47:31;10.43;;;4.63;;
21245;SDS011;10781;50.928;4.440;2023-07-31T11:50:00;7.90;;;3.70;;
21245;SDS011;10781;50.928;4.440;2023-07-31T11:52:27;8.57;;;4.15;;
21245;SDS011;10781;50.928;4.440;2023-07-31T11:54:55;7.35;;;3.78;;
21245;SDS011;10781;50.928;4.440;2023-07-31T11:57:21;13.43;;;4.10;;
21245;SDS011;10781;50.928;4.440;2023-07-31T11:59:47;7.38;;;3.83;;
21245;SDS011;10781;50.928;4.440;2023-07-31T12:02:14;9.63;;;4.15;;
21245;SDS011;10781;50.928;4.440;2023-07-31T12:04:40;8.88;;;4.07;;
21245;SDS011;10781;50.928;4.440;2023-07-31T12:07:05;8.90;;;3.80;;
21245;SDS011;10781;50.928;4.440;2023-07-31T12:09:31;9.82;;;3.90;;
21245;SDS011;10781;50.928;4.440;2023-07-31T12:11:57;8.65;;;3.67;;
21245;SDS011;10781;50.928;4.440;2023-07-31T12:14:29;8.05;;;3.80;;
21245;SDS011;10781;50.928;4.440;2023-07-31T12:16:55;7.78;;;4.10;;
21245;SDS011;10781;50.928;4.440;2023-07-31T12:19:24;6.95;;;3.55;;
21245;SDS011;10781;50.928;4.440;2023-07-31T12:21:53;8.45;;;4.40;;
21245;SDS011;10781;50.928;4.440;2023-07-31T12:24:19;8.32;;;3.78;;
21245;SDS011;10781;50.928;4.440;2023-07-31T12:26:45;9.75;;;3.40;;
21245;SDS011;10781;50.928;4.440;2023-07-31T12:29:13;14.30;;;4.15;;
21245;SDS011;10781;50.928;4.440;2023-07-31T12:31:40;9.45;;;4.32;;
21245;SDS011;10781;50.928;4.440;2023-07-31T12:34:14;7.68;;;3.33;;
21245;SDS011;10781;50.928;4.440;2023-07-31T12:36:45;9.68;;;3.80;;
21245;SDS011;10781;50.928;4.440;2023-07-31T12:39:12;9.65;;;3.58;;
21245;SDS011;10781;50.928;4.440;2023-07-31T12:41:37;7.68;;;3.63;;
21245;SDS011;10781;50.928;4.440;2023-07-31T12:44:03;9.18;;;3.67;;
21245;SDS011;10781;50.928;4.440;2023-07-31T12:46:29;7.63;;;3.75;;
21245;SDS011;10781;50.928;4.440;2023-07-31T12:48:54;7.72;;;3.65;;
21245;SDS011;10781;50.928;4.440;2023-07-31T12:51:20;7.30;;;3.78;;
21245;SDS011;10781;50.928;4.440;2023-07-31T12:53:46;10.02;;;4.18;;
21245;SDS011;10781;50.928;4.440;2023-07-31T12:56:11;8.70;;;3.72;;
21245;SDS011;10781;50.928;4.440;2023-07-31T12:58:37;7.35;;;3.90;;
21245;SDS011;10781;50.928;4.440;2023-07-31T13:01:03;7.75;;;3.30;;
21245;SDS011;10781;50.928;4.440;2023-07-31T13:03:28;8.60;;;3.28;;
21245;SDS011;10781;50.928;4.440;2023-07-31T13:05:54;5.55;;;3.28;;
21245;SDS011;10781;50.928;4.440;2023-07-31T13:08:20;11.23;;;3.33;;
21245;SDS011;10781;50.928;4.440;2023-07-31T13:10:46;8.07;;;3.63;;
21245;SDS011;10781;50.928;4.440;2023-07-31T13:13:11;10.00;;;3.47;;
21245;SDS011;10781;50.928;4.440;2023-07-31T13:15:37;5.82;;;3.00;;
21245;SDS011;10781;50.928;4.440;2023-07-31T13:18:03;6.65;;;2.97;;
21245;SDS011;10781;50.928;4.440;2023-07-31T13:20:29;5.43;;;3.08;;
21245;SDS011;10781;50.928;4.440;2023-07-31T13:22:55;5.93;;;2.72;;
21245;SDS011;10781;50.928;4.440;2023-07-31T13:25:20;5.53;;;2.42;;
21245;SDS011;10781;50.928;4.440;2023-07-31T13:27:46;4.35;;;2.33;;
21245;SDS011;10781;50.928;4.440;2023-07-31T13:30:11;4.38;;;2.55;;
21245;SDS011;10781;50.928;4.440;2023-07-31T13:32:37;6.25;;;2.63;;
21245;SDS011;10781;50.928;4.440;2023-07-31T13:35:05;7.70;;;2.92;;
21245;SDS011;10781;50.928;4.440;2023-07-31T13:37:31;7.30;;;3.10;;
21245;SDS011;10781;50.928;4.440;2023-07-31T13:39:57;5.95;;;2.80;;
21245;SDS011;10781;50.928;4.440;2023-07-31T13:42:22;6.05;;;3.17;;
21245;SDS011;10781;50.928;4.440;2023-07-31T13:44:48;7.50;;;3.33;;
21245;SDS011;10781;50.928;4.440;2023-07-31T13:47:14;5.97;;;3.17;;
21245;SDS011;10781;50.928;4.440;2023-07-31T13:49:40;7.32;;;3.40;;
21245;SDS011;10781;50.928;4.440;2023-07-31T13:52:08;5.55;;;3.25;;
21245;SDS011;10781;50.928;4.440;2023-07-31T13:54:33;6.47;;;3.10;;
21245;SDS011;10781;50.928;4.440;2023-07-31T13:56:59;5.70;;;3.65;;
21245;SDS011;10781;50.928;4.440;2023-07-31T13:59:25;4.65;;;3.20;;
21245;SDS011;10781;50.928;4.440;2023-07-31T14:01:51;5.57;;;3.50;;
21245;SDS011;10781;50.928;4.440;2023-07-31T14:04:17;6.85;;;3.63;;
21245;SDS011;10781;50.928;4.440;2023-07-31T14:06:43;7.65;;;3.50;;
21245;SDS011;10781;50.928;4.440;2023-07-31T14:09:09;5.68;;;3.25;;
21245;SDS011;10781;50.928;4.440;2023-07-31T14:11:34;7.60;;;3.45;;
21245;SDS011;10781;50.928;4.440;2023-07-31T14:14:00;6.68;;;3.13;;
21245;SDS011;10781;50.928;4.440;2023-07-31T14:16:29;7.57;;;3.58;;
21245;SDS011;10781;50.928;4.440;2023-07-31T14:18:56;8.75;;;4.22;;
21245;SDS011;10781;50.928;4.440;2023-07-31T14:21:24;8.02;;;3.75;;
21245;SDS011;10781;50.928;4.440;2023-07-31T14:23:50;8.60;;;3.90;;
21245;SDS011;10781;50.928;4.440;2023-07-31T14:26:16;7.18;;;4.13;;
21245;SDS011;10781;50.928;4.440;2023-07-31T14:28:41;7.45;;;4.25;;
21245;SDS011;10781;50.928;4.440;2023-07-31T14:31:07;6.72;;;4.45;;
21245;SDS011;10781;50.928;4.440;2023-07-31T14:33:33;7.40;;;3.80;;
21245;SDS011;10781;50.928;4.440;2023-07-31T14:35:58;7.75;;;3.70;;
21245;SDS011;10781;50.928;4.440;2023-07-31T14:38:24;5.72;;;3.72;;
21245;SDS011;10781;50.928;4.440;2023-07-31T14:40:50;5.07;;;3.20;;
21245;SDS011;10781;50.928;4.440;2023-07-31T14:43:16;6.25;;;3.30;;
21245;SDS011;10781;50.928;4.440;2023-07-31T14:45:41;5.32;;;2.95;;
21245;SDS011;10781;50.928;4.440;2023-07-31T14:48:07;8.30;;;4.97;;
21245;SDS011;10781;50.928;4.440;2023-07-31T14:50:33;4.82;;;2.80;;
21245;SDS011;10781;50.928;4.440;2023-07-31T14:52:58;4.95;;;2.88;;
21245;SDS011;10781;50.928;4.440;2023-07-31T14:55:25;6.22;;;2.72;;
21245;SDS011;10781;50.928;4.440;2023-07-31T14:57:50;4.82;;;2.45;;
21245;SDS011;10781;50.928;4.440;2023-07-31T15:00:16;5.15;;;2.50;;